sensor_id;sensor_type;location;lat;lon;timestamp;P1;durP1;ratioP1;P2;durP2;ratioP2
29568;SDS011;16501;51.462;14.346;2023-04-09T00:01:06;52.40;;;29.20;;
29568;SDS011;16501;51.462;14.346;2023-04-09T00:03:33;52.47;;;26.17;;
29568;SDS011;16501;51.462;14.346;2023-04-09T00:05:58;59.08;;;30.55;;
29568;SDS011;16501;51.462;14.346;2023-04-09T00:08:24;54.90;;;29.65;;
29568;SDS011;16501;51.462;14.346;2023-04-09T00:10:49;55.45;;;28.35;;
29568;SDS011;16501;51.462;14.346;2023-04-09T00:13:30;54.10;;;29.63;;
29568;SDS011;16501;51.462;14.346;2023-04-09T00:15:55;55.08;;;30.30;;
29568;SDS011;16501;51.462;14.346;2023-04-09T00:18:23;56.85;;;29.30;;
29568;SDS011;16501;51.462;14.346;2023-04-09T00:20:48;52.60;;;26.85;;
29568;SDS011;16501;51.462;14.346;2023-04-09T00:23:13;47.90;;;24.58;;
29568;SDS011;16501;51.462;14.346;2023-04-09T00:25:39;48.60;;;27.15;;
29568;SDS011;16501;51.462;14.346;2023-04-09T00:28:04;52.63;;;29.10;;
29568;SDS011;16501;51.462;14.346;2023-04-09T00:30:30;50.40;;;28.35;;
29568;SDS011;16501;51.462;14.346;2023-04-09T00:32:55;53.80;;;27.65;;
29568;SDS011;16501;51.462;14.346;2023-04-09T00:35:21;47.53;;;26.35;;
29568;SDS011;16501;51.462;14.346;2023-04-09T00:37:46;51.60;;;26.50;;
29568;SDS011;16501;51.462;14.346;2023-04-09T00:40:11;55.60;;;28.00;;
29568;SDS011;16501;51.462;14.346;2023-04-09T00:42:37;51.17;;;26.67;;
29568;SDS011;16501;51.462;14.346;2023-04-09T00:45:05;45.55;;;26.08;;
29568;SDS011;16501;51.462;14.346;2023-04-09T00:47:31;45.95;;;26.92;;
29568;SDS011;16501;51.462;14.346;2023-04-09T00:49:56;52.20;;;28.65;;
29568;SDS011;16501;51.462;14.346;2023-04-09T00:52:22;53.72;;;29.52;;
29568;SDS011;16501;51.462;14.346;2023-04-09T00:54:48;52.15;;;27.48;;
29568;SDS011;16501;51.462;14.346;2023-04-09T00:57:15;56.05;;;27.63;;
29568;SDS011;16501;51.462;14.346;2023-04-09T00:59:41;52.40;;;28.80;;
29568;SDS011;16501;51.462;14.346;2023-04-09T01:02:07;50.22;;;27.60;;
29568;SDS011;16501;51.462;14.346;2023-04-09T01:04:32;61.10;;;31.10;;
29568;SDS011;16501;51.462;14.346;2023-04-09T01:07:01;75.50;;;38.70;;
29568;SDS011;16501;51.462;14.346;2023-04-09T01:09:41;76.95;;;38.92;;
29568;SDS011;16501;51.462;14.346;2023-04-09T01:12:11;78.43;;;39.53;;
29568;SDS011;16501;51.462;14.346;2023-04-09T01:14:48;68.40;;;36.95;;
29568;SDS011;16501;51.462;14.346;2023-04-09T01:17:32;68.50;;;35.72;;
29568;SDS011;16501;51.462;14.346;2023-04-09T01:30:42;64.35;;;31.17;;
29568;SDS011;16501;51.462;14.346;2023-04-09T01:33:12;58.67;;;31.20;;
29568;SDS011;16501;51.462;14.346;2023-04-09T01:35:40;64.40;;;34.25;;
29568;SDS011;16501;51.462;14.346;2023-04-09T01:38:07;64.88;;;33.75;;
29568;SDS011;16501;51.462;14.346;2023-04-09T01:40:34;63.03;;;32.78;;
29568;SDS011;16501;51.462;14.346;2023-04-09T01:43:00;66.30;;;33.60;;
29568;SDS011;16501;51.462;14.346;2023-04-09T01:45:26;63.97;;;31.92;;
29568;SDS011;16501;51.462;14.346;2023-04-09T01:47:51;59.58;;;33.72;;
29568;SDS011;16501;51.462;14.346;2023-04-09T01:50:18;64.47;;;32.33;;
29568;SDS011;16501;51.462;14.346;2023-04-09T01:52:43;66.47;;;32.95;;
29568;SDS011;16501;51.462;14.346;2023-04-09T01:55:09;67.45;;;33.63;;
29568;SDS011;16501;51.462;14.346;2023-04-09T01:57:34;61.97;;;32.90;;
29568;SDS011;16501;51.462;14.346;2023-04-09T02:00:00;58.00;;;34.65;;
29568;SDS011;16501;51.462;14.346;2023-04-09T02:02:35;65.13;;;33.60;;
29568;SDS011;16501;51.462;14.346;2023-04-09T02:05:06;60.40;;;30.80;;
29568;SDS011;16501;51.462;14.346;2023-04-09T02:07:37;54.42;;;31.48;;
29568;SDS011;16501;51.462;14.346;2023-04-09T02:10:05;72.93;;;35.38;;
29568;SDS011;16501;51.462;14.346;2023-04-09T02:12:35;68.68;;;35.47;;
29568;SDS011;16501;51.462;14.346;2023-04-09T02:15:02;64.53;;;34.35;;
29568;SDS011;16501;51.462;14.346;2023-04-09T02:17:29;64.75;;;35.63;;
29568;SDS011;16501;51.462;14.346;2023-04-09T02:19:55;66.40;;;32.45;;
29568;SDS011;16501;51.462;14.346;2023-04-09T02:22:21;65.22;;;34.00;;
29568;SDS011;16501;51.462;14.346;2023-04-09T02:24:46;64.63;;;32.58;;
29568;SDS011;16501;51.462;14.346;2023-04-09T02:27:11;69.68;;;36.72;;
29568;SDS011;16501;51.462;14.346;2023-04-09T02:29:37;67.38;;;34.70;;
29568;SDS011;16501;51.462;14.346;2023-04-09T02:32:04;73.63;;;35.60;;
29568;SDS011;16501;51.462;14.346;2023-04-09T02:34:29;76.38;;;35.97;;
29568;SDS011;16501;51.462;14.346;2023-04-09T02:36:55;65.18;;;32.30;;
29568;SDS011;16501;51.462;14.346;2023-04-09T02:39:20;67.00;;;33.60;;
29568;SDS011;16501;51.462;14.346;2023-04-09T02:41:45;61.53;;;31.17;;
29568;SDS011;16501;51.462;14.346;2023-04-09T02:44:10;67.80;;;34.15;;
29568;SDS011;16501;51.462;14.346;2023-04-09T02:46:36;74.55;;;35.45;;
29568;SDS011;16501;51.462;14.346;2023-04-09T02:49:02;64.38;;;33.13;;
29568;SDS011;16501;51.462;14.346;2023-04-09T02:51:28;65.00;;;31.98;;
29568;SDS011;16501;51.462;14.346;2023-04-09T02:53:53;57.03;;;31.00;;
29568;SDS011;16501;51.462;14.346;2023-04-09T02:56:18;58.50;;;31.55;;
29568;SDS011;16501;51.462;14.346;2023-04-09T02:58:44;61.45;;;32.88;;
29568;SDS011;16501;51.462;14.346;2023-04-09T03:01:09;62.65;;;32.45;;
29568;SDS011;16501;51.462;14.346;2023-04-09T03:03:35;61.92;;;31.63;;
29568;SDS011;16501;51.462;14.346;2023-04-09T03:06:01;61.00;;;31.65;;
29568;SDS011;16501;51.462;14.346;2023-04-09T03:08:26;62.30;;;33.22;;
29568;SDS011;16501;51.462;14.346;2023-04-09T03:10:51;60.30;;;30.55;;
29568;SDS011;16501;51.462;14.346;2023-04-09T03:13:17;63.90;;;32.85;;
29568;SDS011;16501;51.462;14.346;2023-04-09T03:15:42;63.85;;;33.00;;
29568;SDS011;16501;51.462;14.346;2023-04-09T03:18:07;70.65;;;34.33;;
29568;SDS011;16501;51.462;14.346;2023-04-09T03:20:32;74.38;;;36.60;;
29568;SDS011;16501;51.462;14.346;2023-04-09T03:23:01;66.38;;;34.25;;
29568;SDS011;16501;51.462;14.346;2023-04-09T03:25:27;70.18;;;35.13;;
29568;SDS011;16501;51.462;14.346;2023-04-09T03:27:52;68.95;;;36.22;;
29568;SDS011;16501;51.462;14.346;2023-04-09T03:30:17;66.60;;;36.83;;
29568;SDS011;16501;51.462;14.346;2023-04-09T03:32:43;66.32;;;34.83;;
29568;SDS011;16501;51.462;14.346;2023-04-09T03:35:08;70.80;;;37.25;;
29568;SDS011;16501;51.462;14.346;2023-04-09T03:37:33;75.03;;;37.28;;
29568;SDS011;16501;51.462;14.346;2023-04-09T03:39:59;66.85;;;37.45;;
29568;SDS011;16501;51.462;14.346;2023-04-09T03:42:25;72.28;;;37.15;;
29568;SDS011;16501;51.462;14.346;2023-04-09T03:44:52;69.28;;;35.88;;
29568;SDS011;16501;51.462;14.346;2023-04-09T03:47:17;66.38;;;35.38;;
29568;SDS011;16501;51.462;14.346;2023-04-09T03:49:43;66.47;;;35.72;;
29568;SDS011;16501;51.462;14.346;2023-04-09T03:52:08;72.68;;;36.17;;
29568;SDS011;16501;51.462;14.346;2023-04-09T03:54:33;67.85;;;35.53;;
29568;SDS011;16501;51.462;14.346;2023-04-09T03:56:58;65.25;;;34.33;;
29568;SDS011;16501;51.462;14.346;2023-04-09T03:59:27;64.72;;;32.88;;
29568;SDS011;16501;51.462;14.346;2023-04-09T04:01:53;63.10;;;32.72;;
29568;SDS011;16501;51.462;14.346;2023-04-09T04:04:18;70.53;;;34.55;;
29568;SDS011;16501;51.462;14.346;2023-04-09T04:06:43;58.63;;;32.10;;
29568;SDS011;16501;51.462;14.346;2023-04-09T04:09:08;63.72;;;32.75;;
29568;SDS011;16501;51.462;14.346;2023-04-09T04:11:34;66.90;;;32.40;;
29568;SDS011;16501;51.462;14.346;2023-04-09T04:13:59;63.65;;;33.50;;
29568;SDS011;16501;51.462;14.346;2023-04-09T04:16:24;65.32;;;34.10;;
29568;SDS011;16501;51.462;14.346;2023-04-09T04:18:49;62.05;;;33.67;;
29568;SDS011;16501;51.462;14.346;2023-04-09T04:21:15;58.65;;;31.75;;
29568;SDS011;16501;51.462;14.346;2023-04-09T04:23:41;60.53;;;31.98;;
29568;SDS011;16501;51.462;14.346;2023-04-09T04:26:09;58.08;;;32.15;;
29568;SDS011;16501;51.462;14.346;2023-04-09T04:28:35;59.55;;;31.38;;
29568;SDS011;16501;51.462;14.346;2023-04-09T04:31:01;65.53;;;32.10;;
29568;SDS011;16501;51.462;14.346;2023-04-09T04:33:31;71.68;;;33.33;;
29568;SDS011;16501;51.462;14.346;2023-04-09T04:36:03;59.72;;;31.38;;
29568;SDS011;16501;51.462;14.346;2023-04-09T04:38:32;56.97;;;29.58;;
29568;SDS011;16501;51.462;14.346;2023-04-09T04:40:58;56.03;;;29.30;;
29568;SDS011;16501;51.462;14.346;2023-04-09T04:43:24;61.38;;;31.65;;
29568;SDS011;16501;51.462;14.346;2023-04-09T04:45:49;61.00;;;30.67;;
29568;SDS011;16501;51.462;14.346;2023-04-09T04:48:14;60.28;;;30.60;;
29568;SDS011;16501;51.462;14.346;2023-04-09T04:50:39;58.78;;;31.40;;
29568;SDS011;16501;51.462;14.346;2023-04-09T04:53:05;63.85;;;32.67;;
29568;SDS011;16501;51.462;14.346;2023-04-09T04:55:30;62.47;;;31.90;;
29568;SDS011;16501;51.462;14.346;2023-04-09T04:57:55;63.70;;;31.27;;
29568;SDS011;16501;51.462;14.346;2023-04-09T05:00:21;60.63;;;31.35;;
29568;SDS011;16501;51.462;14.346;2023-04-09T05:02:47;63.90;;;31.25;;
29568;SDS011;16501;51.462;14.346;2023-04-09T05:05:12;59.60;;;29.80;;
29568;SDS011;16501;51.462;14.346;2023-04-09T05:07:37;47.97;;;29.55;;
29568;SDS011;16501;51.462;14.346;2023-04-09T05:10:03;61.97;;;32.08;;
29568;SDS011;16501;51.462;14.346;2023-04-09T05:12:31;56.55;;;29.83;;
29568;SDS011;16501;51.462;14.346;2023-04-09T05:14:57;54.97;;;28.42;;
29568;SDS011;16501;51.462;14.346;2023-04-09T05:17:22;52.50;;;27.33;;
29568;SDS011;16501;51.462;14.346;2023-04-09T05:19:51;58.42;;;30.33;;
29568;SDS011;16501;51.462;14.346;2023-04-09T05:22:17;59.22;;;31.45;;
29568;SDS011;16501;51.462;14.346;2023-04-09T05:24:43;62.65;;;29.40;;
29568;SDS011;16501;51.462;14.346;2023-04-09T05:27:08;59.33;;;30.02;;
29568;SDS011;16501;51.462;14.346;2023-04-09T05:29:33;60.13;;;29.67;;
29568;SDS011;16501;51.462;14.346;2023-04-09T05:31:59;51.75;;;28.00;;
29568;SDS011;16501;51.462;14.346;2023-04-09T05:34:24;53.00;;;27.92;;
29568;SDS011;16501;51.462;14.346;2023-04-09T05:36:50;51.92;;;29.77;;
29568;SDS011;16501;51.462;14.346;2023-04-09T05:39:16;56.72;;;29.90;;
29568;SDS011;16501;51.462;14.346;2023-04-09T05:41:41;52.67;;;28.45;;
29568;SDS011;16501;51.462;14.346;2023-04-09T05:44:08;57.72;;;31.13;;
29568;SDS011;16501;51.462;14.346;2023-04-09T05:46:33;56.70;;;28.35;;
29568;SDS011;16501;51.462;14.346;2023-04-09T05:48:59;56.28;;;28.92;;
29568;SDS011;16501;51.462;14.346;2023-04-09T05:51:24;45.88;;;27.10;;
29568;SDS011;16501;51.462;14.346;2023-04-09T05:53:49;51.28;;;28.77;;
29568;SDS011;16501;51.462;14.346;2023-04-09T05:56:15;58.22;;;30.30;;
29568;SDS011;16501;51.462;14.346;2023-04-09T05:58:40;51.97;;;29.02;;
29568;SDS011;16501;51.462;14.346;2023-04-09T06:01:05;57.90;;;30.80;;
29568;SDS011;16501;51.462;14.346;2023-04-09T06:03:31;59.20;;;32.15;;
29568;SDS011;16501;51.462;14.346;2023-04-09T06:05:56;58.13;;;31.67;;
29568;SDS011;16501;51.462;14.346;2023-04-09T06:08:21;64.93;;;32.20;;
29568;SDS011;16501;51.462;14.346;2023-04-09T06:10:46;67.32;;;35.00;;
29568;SDS011;16501;51.462;14.346;2023-04-09T06:13:12;69.63;;;34.92;;
29568;SDS011;16501;51.462;14.346;2023-04-09T06:15:37;83.20;;;42.05;;
29568;SDS011;16501;51.462;14.346;2023-04-09T06:18:03;77.15;;;38.72;;
29568;SDS011;16501;51.462;14.346;2023-04-09T06:20:28;82.47;;;43.53;;
29568;SDS011;16501;51.462;14.346;2023-04-09T06:22:54;131.57;;;67.30;;
29568;SDS011;16501;51.462;14.346;2023-04-09T06:25:19;83.05;;;42.97;;
29568;SDS011;16501;51.462;14.346;2023-04-09T06:27:45;76.22;;;41.47;;
29568;SDS011;16501;51.462;14.346;2023-04-09T06:30:10;82.10;;;41.55;;
29568;SDS011;16501;51.462;14.346;2023-04-09T06:32:36;85.97;;;42.65;;
29568;SDS011;16501;51.462;14.346;2023-04-09T06:35:01;77.30;;;43.33;;
29568;SDS011;16501;51.462;14.346;2023-04-09T06:37:26;86.45;;;45.60;;
29568;SDS011;16501;51.462;14.346;2023-04-09T06:39:52;86.07;;;44.22;;
29568;SDS011;16501;51.462;14.346;2023-04-09T06:42:17;78.22;;;43.22;;
29568;SDS011;16501;51.462;14.346;2023-04-09T06:44:42;90.00;;;44.78;;
29568;SDS011;16501;51.462;14.346;2023-04-09T06:47:08;86.22;;;43.05;;
29568;SDS011;16501;51.462;14.346;2023-04-09T06:49:33;80.70;;;43.10;;
29568;SDS011;16501;51.462;14.346;2023-04-09T06:51:58;77.97;;;40.92;;
29568;SDS011;16501;51.462;14.346;2023-04-09T06:54:23;75.65;;;40.80;;
29568;SDS011;16501;51.462;14.346;2023-04-09T06:56:49;78.63;;;41.72;;
29568;SDS011;16501;51.462;14.346;2023-04-09T06:59:14;87.97;;;45.22;;
29568;SDS011;16501;51.462;14.346;2023-04-09T07:01:41;84.30;;;45.30;;
29568;SDS011;16501;51.462;14.346;2023-04-09T07:04:07;88.93;;;46.47;;
29568;SDS011;16501;51.462;14.346;2023-04-09T07:06:32;88.32;;;47.33;;
29568;SDS011;16501;51.462;14.346;2023-04-09T07:08:57;87.18;;;46.95;;
29568;SDS011;16501;51.462;14.346;2023-04-09T07:11:22;87.22;;;46.85;;
29568;SDS011;16501;51.462;14.346;2023-04-09T07:13:48;90.55;;;48.63;;
29568;SDS011;16501;51.462;14.346;2023-04-09T07:16:13;86.57;;;44.80;;
29568;SDS011;16501;51.462;14.346;2023-04-09T07:18:38;81.28;;;44.90;;
29568;SDS011;16501;51.462;14.346;2023-04-09T07:21:03;77.25;;;41.00;;
29568;SDS011;16501;51.462;14.346;2023-04-09T07:23:29;79.40;;;43.83;;
29568;SDS011;16501;51.462;14.346;2023-04-09T07:26:00;82.60;;;42.88;;
29568;SDS011;16501;51.462;14.346;2023-04-09T07:28:28;75.68;;;41.40;;
29568;SDS011;16501;51.462;14.346;2023-04-09T07:30:53;80.40;;;41.88;;
29568;SDS011;16501;51.462;14.346;2023-04-09T07:33:19;75.40;;;41.03;;
29568;SDS011;16501;51.462;14.346;2023-04-09T07:35:44;71.85;;;39.08;;
29568;SDS011;16501;51.462;14.346;2023-04-09T07:38:10;64.25;;;34.90;;
29568;SDS011;16501;51.462;14.346;2023-04-09T07:40:35;68.65;;;38.85;;
29568;SDS011;16501;51.462;14.346;2023-04-09T07:43:01;71.07;;;38.05;;
29568;SDS011;16501;51.462;14.346;2023-04-09T07:45:26;67.07;;;37.45;;
29568;SDS011;16501;51.462;14.346;2023-04-09T07:47:52;65.88;;;36.30;;
29568;SDS011;16501;51.462;14.346;2023-04-09T07:50:17;64.05;;;34.42;;
29568;SDS011;16501;51.462;14.346;2023-04-09T07:52:42;58.92;;;32.33;;
29568;SDS011;16501;51.462;14.346;2023-04-09T07:55:08;61.78;;;34.83;;
29568;SDS011;16501;51.462;14.346;2023-04-09T07:57:33;61.95;;;34.28;;
29568;SDS011;16501;51.462;14.346;2023-04-09T07:59:58;57.65;;;34.55;;
29568;SDS011;16501;51.462;14.346;2023-04-09T08:02:24;59.60;;;32.85;;
29568;SDS011;16501;51.462;14.346;2023-04-09T08:04:49;76.05;;;40.72;;
29568;SDS011;16501;51.462;14.346;2023-04-09T08:07:15;61.80;;;33.85;;
29568;SDS011;16501;51.462;14.346;2023-04-09T08:09:40;56.10;;;32.75;;
29568;SDS011;16501;51.462;14.346;2023-04-09T08:12:05;57.00;;;32.22;;
29568;SDS011;16501;51.462;14.346;2023-04-09T08:14:31;63.50;;;33.95;;
29568;SDS011;16501;51.462;14.346;2023-04-09T08:16:56;71.80;;;39.35;;
29568;SDS011;16501;51.462;14.346;2023-04-09T08:19:21;69.35;;;39.83;;
29568;SDS011;16501;51.462;14.346;2023-04-09T08:21:47;66.72;;;39.03;;
29568;SDS011;16501;51.462;14.346;2023-04-09T08:24:16;70.18;;;37.83;;
29568;SDS011;16501;51.462;14.346;2023-04-09T08:26:42;64.50;;;37.92;;
29568;SDS011;16501;51.462;14.346;2023-04-09T08:29:07;74.28;;;40.67;;
29568;SDS011;16501;51.462;14.346;2023-04-09T08:31:34;67.18;;;37.63;;
29568;SDS011;16501;51.462;14.346;2023-04-09T08:34:01;72.68;;;40.45;;
29568;SDS011;16501;51.462;14.346;2023-04-09T08:36:26;64.22;;;37.75;;
29568;SDS011;16501;51.462;14.346;2023-04-09T08:38:52;63.85;;;36.67;;
29568;SDS011;16501;51.462;14.346;2023-04-09T08:41:19;70.43;;;38.42;;
29568;SDS011;16501;51.462;14.346;2023-04-09T08:43:49;66.65;;;37.05;;
29568;SDS011;16501;51.462;14.346;2023-04-09T08:46:16;64.00;;;36.03;;
29568;SDS011;16501;51.462;14.346;2023-04-09T08:48:46;64.15;;;35.63;;
29568;SDS011;16501;51.462;14.346;2023-04-09T08:51:13;56.75;;;32.72;;
29568;SDS011;16501;51.462;14.346;2023-04-09T08:53:43;53.20;;;34.00;;
29568;SDS011;16501;51.462;14.346;2023-04-09T08:56:11;61.80;;;33.10;;
29568;SDS011;16501;51.462;14.346;2023-04-09T08:58:38;50.47;;;28.75;;
29568;SDS011;16501;51.462;14.346;2023-04-09T09:01:16;112.03;;;50.38;;
29568;SDS011;16501;51.462;14.346;2023-04-09T09:03:55;82.22;;;39.75;;
29568;SDS011;16501;51.462;14.346;2023-04-09T09:06:26;55.50;;;30.92;;
29568;SDS011;16501;51.462;14.346;2023-04-09T09:09:00;43.08;;;25.52;;
29568;SDS011;16501;51.462;14.346;2023-04-09T09:11:40;50.47;;;27.30;;
29568;SDS011;16501;51.462;14.346;2023-04-09T09:14:15;40.78;;;23.15;;
29568;SDS011;16501;51.462;14.346;2023-04-09T09:17:01;39.22;;;23.60;;
29568;SDS011;16501;51.462;14.346;2023-04-09T09:19:29;40.05;;;22.63;;
29568;SDS011;16501;51.462;14.346;2023-04-09T09:21:58;37.85;;;22.17;;
29568;SDS011;16501;51.462;14.346;2023-04-09T09:24:25;38.78;;;22.30;;
29568;SDS011;16501;51.462;14.346;2023-04-09T09:26:51;38.40;;;23.55;;
29568;SDS011;16501;51.462;14.346;2023-04-09T09:29:18;33.05;;;21.15;;
29568;SDS011;16501;51.462;14.346;2023-04-09T09:31:47;37.22;;;22.55;;
29568;SDS011;16501;51.462;14.346;2023-04-09T09:34:14;38.75;;;22.20;;
29568;SDS011;16501;51.462;14.346;2023-04-09T09:36:41;34.22;;;19.83;;
29568;SDS011;16501;51.462;14.346;2023-04-09T09:39:07;35.10;;;20.80;;
29568;SDS011;16501;51.462;14.346;2023-04-09T09:41:37;35.85;;;21.33;;
29568;SDS011;16501;51.462;14.346;2023-04-09T09:44:03;40.33;;;20.85;;
29568;SDS011;16501;51.462;14.346;2023-04-09T09:46:33;33.17;;;20.45;;
29568;SDS011;16501;51.462;14.346;2023-04-09T09:48:59;35.17;;;19.83;;
29568;SDS011;16501;51.462;14.346;2023-04-09T09:51:25;33.58;;;19.00;;
29568;SDS011;16501;51.462;14.346;2023-04-09T09:53:54;32.83;;;19.90;;
29568;SDS011;16501;51.462;14.346;2023-04-09T09:56:29;27.63;;;17.17;;
29568;SDS011;16501;51.462;14.346;2023-04-09T09:59:00;35.22;;;18.40;;
29568;SDS011;16501;51.462;14.346;2023-04-09T10:01:34;31.35;;;19.02;;
29568;SDS011;16501;51.462;14.346;2023-04-09T10:04:01;34.95;;;18.88;;
29568;SDS011;16501;51.462;14.346;2023-04-09T10:06:30;31.50;;;18.92;;
29568;SDS011;16501;51.462;14.346;2023-04-09T10:08:58;34.20;;;20.10;;
29568;SDS011;16501;51.462;14.346;2023-04-09T10:11:27;35.55;;;21.20;;
29568;SDS011;16501;51.462;14.346;2023-04-09T10:13:55;34.30;;;20.60;;
29568;SDS011;16501;51.462;14.346;2023-04-09T10:16:22;34.35;;;21.55;;
29568;SDS011;16501;51.462;14.346;2023-04-09T10:18:48;36.92;;;22.02;;
29568;SDS011;16501;51.462;14.346;2023-04-09T10:24:00;35.88;;;22.35;;
29568;SDS011;16501;51.462;14.346;2023-04-09T10:26:31;38.50;;;23.25;;
29568;SDS011;16501;51.462;14.346;2023-04-09T10:29:04;33.55;;;20.45;;
29568;SDS011;16501;51.462;14.346;2023-04-09T10:34:55;32.67;;;18.45;;
29568;SDS011;16501;51.462;14.346;2023-04-09T10:37:23;35.50;;;19.88;;
29568;SDS011;16501;51.462;14.346;2023-04-09T10:39:50;32.33;;;20.08;;
29568;SDS011;16501;51.462;14.346;2023-04-09T10:42:28;30.23;;;18.58;;
29568;SDS011;16501;51.462;14.346;2023-04-09T10:45:18;31.92;;;19.13;;
29568;SDS011;16501;51.462;14.346;2023-04-09T10:47:45;30.80;;;19.52;;
29568;SDS011;16501;51.462;14.346;2023-04-09T10:52:51;29.25;;;18.67;;
29568;SDS011;16501;51.462;14.346;2023-04-09T10:58:02;32.70;;;20.48;;
29568;SDS011;16501;51.462;14.346;2023-04-09T11:00:30;32.42;;;20.02;;
29568;SDS011;16501;51.462;14.346;2023-04-09T11:05:31;34.40;;;20.95;;
29568;SDS011;16501;51.462;14.346;2023-04-09T11:08:08;32.90;;;19.85;;
29568;SDS011;16501;51.462;14.346;2023-04-09T11:10:38;32.08;;;21.08;;
29568;SDS011;16501;51.462;14.346;2023-04-09T11:13:11;31.30;;;19.60;;
29568;SDS011;16501;51.462;14.346;2023-04-09T11:15:37;32.67;;;20.23;;
29568;SDS011;16501;51.462;14.346;2023-04-09T11:18:03;32.42;;;20.00;;
29568;SDS011;16501;51.462;14.346;2023-04-09T11:20:31;31.08;;;18.80;;
29568;SDS011;16501;51.462;14.346;2023-04-09T11:22:58;30.90;;;19.45;;
29568;SDS011;16501;51.462;14.346;2023-04-09T11:25:25;30.40;;;19.38;;
29568;SDS011;16501;51.462;14.346;2023-04-09T11:27:52;45.90;;;27.80;;
29568;SDS011;16501;51.462;14.346;2023-04-09T11:30:18;28.25;;;19.38;;
29568;SDS011;16501;51.462;14.346;2023-04-09T11:32:44;33.50;;;19.98;;
29568;SDS011;16501;51.462;14.346;2023-04-09T11:35:20;28.98;;;19.08;;
29568;SDS011;16501;51.462;14.346;2023-04-09T11:37:46;34.22;;;20.83;;
29568;SDS011;16501;51.462;14.346;2023-04-09T11:42:48;32.63;;;19.20;;
29568;SDS011;16501;51.462;14.346;2023-04-09T11:45:15;35.03;;;21.27;;
29568;SDS011;16501;51.462;14.346;2023-04-09T11:47:42;44.78;;;30.67;;
29568;SDS011;16501;51.462;14.346;2023-04-09T11:50:09;32.38;;;21.35;;
29568;SDS011;16501;51.462;14.346;2023-04-09T11:52:36;28.70;;;19.27;;
29568;SDS011;16501;51.462;14.346;2023-04-09T11:55:02;33.60;;;18.58;;
29568;SDS011;16501;51.462;14.346;2023-04-09T11:57:38;28.40;;;18.88;;
29568;SDS011;16501;51.462;14.346;2023-04-09T12:00:08;30.83;;;19.85;;
29568;SDS011;16501;51.462;14.346;2023-04-09T12:02:36;27.63;;;16.90;;
29568;SDS011;16501;51.462;14.346;2023-04-09T12:05:03;29.50;;;18.05;;
29568;SDS011;16501;51.462;14.346;2023-04-09T12:07:35;27.95;;;18.30;;
29568;SDS011;16501;51.462;14.346;2023-04-09T12:10:05;24.63;;;16.38;;
29568;SDS011;16501;51.462;14.346;2023-04-09T12:12:38;26.15;;;16.45;;
29568;SDS011;16501;51.462;14.346;2023-04-09T12:15:20;25.00;;;17.13;;
29568;SDS011;16501;51.462;14.346;2023-04-09T12:17:52;30.50;;;19.05;;
29568;SDS011;16501;51.462;14.346;2023-04-09T12:20:29;28.33;;;18.38;;
29568;SDS011;16501;51.462;14.346;2023-04-09T12:22:59;28.83;;;17.30;;
29568;SDS011;16501;51.462;14.346;2023-04-09T12:25:27;28.77;;;18.58;;
29568;SDS011;16501;51.462;14.346;2023-04-09T12:27:53;29.70;;;17.42;;
29568;SDS011;16501;51.462;14.346;2023-04-09T12:30:19;27.17;;;16.95;;
29568;SDS011;16501;51.462;14.346;2023-04-09T12:32:45;28.05;;;17.92;;
29568;SDS011;16501;51.462;14.346;2023-04-09T12:35:10;26.23;;;17.73;;
29568;SDS011;16501;51.462;14.346;2023-04-09T12:37:36;25.33;;;17.35;;
29568;SDS011;16501;51.462;14.346;2023-04-09T12:40:01;23.48;;;14.60;;
29568;SDS011;16501;51.462;14.346;2023-04-09T12:42:27;21.10;;;13.50;;
29568;SDS011;16501;51.462;14.346;2023-04-09T12:44:55;20.75;;;14.15;;
29568;SDS011;16501;51.462;14.346;2023-04-09T12:47:20;23.27;;;13.85;;
29568;SDS011;16501;51.462;14.346;2023-04-09T12:49:46;20.35;;;13.07;;
29568;SDS011;16501;51.462;14.346;2023-04-09T12:52:14;20.00;;;13.20;;
29568;SDS011;16501;51.462;14.346;2023-04-09T12:54:39;22.83;;;13.70;;
29568;SDS011;16501;51.462;14.346;2023-04-09T12:57:05;23.60;;;14.52;;
29568;SDS011;16501;51.462;14.346;2023-04-09T12:59:32;22.33;;;14.40;;
29568;SDS011;16501;51.462;14.346;2023-04-09T13:01:57;25.52;;;14.05;;
29568;SDS011;16501;51.462;14.346;2023-04-09T13:04:22;22.17;;;14.90;;
29568;SDS011;16501;51.462;14.346;2023-04-09T13:06:48;23.52;;;14.23;;
29568;SDS011;16501;51.462;14.346;2023-04-09T13:09:14;23.42;;;15.45;;
29568;SDS011;16501;51.462;14.346;2023-04-09T13:11:39;25.10;;;15.30;;
29568;SDS011;16501;51.462;14.346;2023-04-09T13:14:05;25.65;;;15.48;;
29568;SDS011;16501;51.462;14.346;2023-04-09T13:16:30;22.45;;;13.93;;
29568;SDS011;16501;51.462;14.346;2023-04-09T13:18:56;24.25;;;14.70;;
29568;SDS011;16501;51.462;14.346;2023-04-09T13:21:22;22.65;;;13.95;;
29568;SDS011;16501;51.462;14.346;2023-04-09T13:23:47;22.38;;;14.55;;
29568;SDS011;16501;51.462;14.346;2023-04-09T13:26:12;26.77;;;15.25;;
29568;SDS011;16501;51.462;14.346;2023-04-09T13:28:37;21.13;;;14.57;;
29568;SDS011;16501;51.462;14.346;2023-04-09T13:31:03;22.10;;;15.00;;
29568;SDS011;16501;51.462;14.346;2023-04-09T13:33:29;23.23;;;13.50;;
29568;SDS011;16501;51.462;14.346;2023-04-09T13:35:55;21.15;;;14.18;;
29568;SDS011;16501;51.462;14.346;2023-04-09T13:38:21;21.33;;;14.82;;
29568;SDS011;16501;51.462;14.346;2023-04-09T13:40:46;30.38;;;15.98;;
29568;SDS011;16501;51.462;14.346;2023-04-09T13:43:12;24.55;;;15.02;;
29568;SDS011;16501;51.462;14.346;2023-04-09T13:45:37;24.33;;;14.65;;
29568;SDS011;16501;51.462;14.346;2023-04-09T13:48:02;25.60;;;14.57;;
29568;SDS011;16501;51.462;14.346;2023-04-09T13:50:29;22.90;;;14.70;;
29568;SDS011;16501;51.462;14.346;2023-04-09T13:52:54;22.20;;;14.75;;
29568;SDS011;16501;51.462;14.346;2023-04-09T13:55:20;22.15;;;14.68;;
29568;SDS011;16501;51.462;14.346;2023-04-09T13:57:45;23.88;;;14.90;;
29568;SDS011;16501;51.462;14.346;2023-04-09T14:00:10;21.42;;;14.60;;
29568;SDS011;16501;51.462;14.346;2023-04-09T14:02:36;20.38;;;13.95;;
29568;SDS011;16501;51.462;14.346;2023-04-09T14:05:02;25.50;;;15.32;;
29568;SDS011;16501;51.462;14.346;2023-04-09T14:07:27;22.13;;;14.73;;
29568;SDS011;16501;51.462;14.346;2023-04-09T14:09:53;24.65;;;14.90;;
29568;SDS011;16501;51.462;14.346;2023-04-09T14:12:18;25.77;;;15.80;;
29568;SDS011;16501;51.462;14.346;2023-04-09T14:14:43;27.50;;;15.85;;
29568;SDS011;16501;51.462;14.346;2023-04-09T14:17:08;25.48;;;15.95;;
29568;SDS011;16501;51.462;14.346;2023-04-09T14:19:34;23.65;;;14.60;;
29568;SDS011;16501;51.462;14.346;2023-04-09T14:21:59;23.40;;;14.73;;
29568;SDS011;16501;51.462;14.346;2023-04-09T14:24:24;21.90;;;14.30;;
29568;SDS011;16501;51.462;14.346;2023-04-09T14:26:50;23.67;;;15.82;;
29568;SDS011;16501;51.462;14.346;2023-04-09T14:29:17;23.27;;;14.77;;
29568;SDS011;16501;51.462;14.346;2023-04-09T14:31:42;22.50;;;14.55;;
29568;SDS011;16501;51.462;14.346;2023-04-09T14:34:08;21.63;;;14.88;;